Time;durP1;ratioP1;P1;durP2;ratioP2;P2;SDS_P1;SDS_P2;PMS_P1;PMS_P2;Temp;Humidity;BMP_temperature;BMP_pressure;BME280_temperature;BME280_humidity;BME280_pressure;Samples;Min_cycle;Max_cycle;Signal;HPM_P1;HPM_P2
2022/11/20 04:02:21;;;;;;;0.70;0.70;;;6.00;88.10;;;;;;5292566;23;20999;-72
2022/11/20 04:04:48;;;;;;;0.60;0.60;;;5.90;88.60;;;;;;4974702;28;20450;-72
2022/11/20 04:07:15;;;;;;;0.70;0.70;;;5.80;89.00;;;;;;4974218;28;20993;-72
2022/11/20 04:09:41;;;;;;;0.60;0.60;;;5.70;89.30;;;;;;4974635;28;20482;-72
2022/11/20 04:12:08;;;;;;;0.80;0.80;;;5.60;89.80;;;;;;4974496;28;20470;-72
2022/11/20 04:14:35;;;;;;;0.70;0.70;;;5.60;90.20;;;;;;4976022;28;20450;-72
2022/11/20 04:17:02;;;;;;;0.70;0.70;;;5.50;90.20;;;;;;4974538;28;20529;-72
2022/11/20 04:19:30;;;;;;;0.70;0.70;;;5.30;90.60;;;;;;4974506;28;20442;-72
2022/11/20 04:21:57;;;;;;;0.80;0.80;;;5.20;91.10;;;;;;4974404;28;20475;-72
2022/11/20 04:24:23;;;;;;;0.60;0.60;;;5.20;91.70;;;;;;4974505;28;20450;-72
2022/11/20 04:26:50;;;;;;;0.70;0.70;;;5.10;91.50;;;;;;4974071;28;20458;-72
2022/11/20 04:29:17;;;;;;;0.90;0.90;;;5.20;92.00;;;;;;4974373;28;20458;-72
2022/11/20 04:31:43;;;;;;;0.70;0.70;;;5.30;91.70;;;;;;4974344;28;20470;-72
2022/11/20 04:34:12;;;;;;;0.70;0.70;;;5.30;91.50;;;;;;4974374;28;20450;-72
2022/11/20 04:36:40;;;;;;;0.60;0.60;;;5.30;91.70;;;;;;4974346;28;20457;-72
2022/11/20 04:39:07;;;;;;;0.77;0.77;;;5.30;91.50;;;;;;4974356;28;20450;-72
2022/11/20 04:41:36;;;;;;;0.70;0.70;;;5.30;91.50;;;;;;4974264;28;20497;-72
2022/11/20 04:44:05;;;;;;;0.77;0.77;;;5.40;91.60;;;;;;4974280;28;20454;-72
2022/11/20 04:46:33;;;;;;;0.70;0.70;;;5.40;91.50;;;;;;4973960;28;21058;-72
2022/11/20 04:49:00;;;;;;;0.60;0.60;;;5.40;91.50;;;;;;4977692;28;20481;-72
2022/11/20 04:51:27;;;;;;;0.67;0.67;;;5.50;91.40;;;;;;4977570;28;20981;-72
2022/11/20 04:53:55;;;;;;;0.70;0.70;;;5.50;91.00;;;;;;4977816;28;20964;-72
2022/11/20 04:56:22;;;;;;;0.60;0.60;;;5.50;90.80;;;;;;4977924;28;20457;-72
2022/11/20 04:58:49;;;;;;;0.70;0.70;;;5.60;90.90;;;;;;4977864;28;20497;-72
2022/11/20 05:01:20;;;;;;;0.60;0.60;;;5.40;91.00;;;;;;4977283;28;20991;-72
2022/11/20 05:03:47;;;;;;;0.70;0.70;;;5.40;91.80;;;;;;4977787;28;20434;-72
2022/11/20 05:06:16;;;;;;;0.70;0.70;;;5.60;91.90;;;;;;4977415;28;20942;-72
2022/11/20 05:08:43;;;;;;;0.67;0.67;;;5.70;91.50;;;;;;4977632;28;20505;-72
2022/11/20 05:11:12;;;;;;;0.70;0.70;;;5.70;90.90;;;;;;4977254;28;20466;-72
2022/11/20 05:13:39;;;;;;;0.50;0.50;;;5.70;91.10;;;;;;4977578;28;20496;-72
2022/11/20 05:16:08;;;;;;;0.60;0.60;;;5.80;91.10;;;;;;4977535;28;20457;-72
2022/11/20 05:18:36;;;;;;;0.70;0.70;;;5.80;91.10;;;;;;4977471;28;20446;-72
2022/11/20 05:21:03;;;;;;;0.60;0.60;;;5.70;90.90;;;;;;4977407;28;20497;-72
2022/11/20 05:23:31;;;;;;;0.60;0.60;;;5.70;91.20;;;;;;4977104;28;20454;-70
2022/11/20 05:25:58;;;;;;;0.70;0.70;;;5.80;91.10;;;;;;4977383;28;20833;-72
2022/11/20 05:28:27;;;;;;;0.73;0.73;;;5.80;91.10;;;;;;4977267;28;20482;-72
2022/11/20 05:30:53;;;;;;;0.70;0.70;;;5.80;91.60;;;;;;4977201;28;20493;-72
2022/11/20 05:33:21;;;;;;;0.70;0.70;;;5.80;91.80;;;;;;4976937;28;20446;-72
2022/11/20 05:35:48;;;;;;;0.70;0.70;;;5.90;91.10;;;;;;4977157;28;20454;-72
2022/11/20 05:38:15;;;;;;;0.90;0.90;;;5.90;91.30;;;;;;4977263;28;20449;-72
2022/11/20 05:40:41;;;;;;;0.70;0.70;;;5.90;90.90;;;;;;4977261;28;20454;-71
2022/11/20 05:43:08;;;;;;;0.60;0.60;;;6.00;90.80;;;;;;4977583;28;20450;-70
2022/11/20 05:45:36;;;;;;;0.60;0.60;;;5.90;90.90;;;;;;4976990;28;20942;-70
2022/11/20 05:48:03;;;;;;;0.87;0.87;;;5.90;91.00;;;;;;4977223;28;20482;-70
2022/11/20 05:50:30;;;;;;;0.60;0.60;;;5.80;91.50;;;;;;4976842;28;20973;-71
2022/11/20 05:52:59;;;;;;;0.70;0.70;;;5.80;91.70;;;;;;4976971;28;20457;-70
2022/11/20 05:55:25;;;;;;;0.77;0.77;;;5.90;91.10;;;;;;4976912;28;20532;-70
2022/11/20 05:57:53;;;;;;;0.97;0.70;;;6.10;90.90;;;;;;4976250;28;20942;-71
2022/11/20 06:00:20;;;;;;;0.70;0.70;;;5.90;90.20;;;;;;4976771;28;20443;-70
2022/11/20 06:02:48;;;;;;;0.67;0.67;;;5.90;91.30;;;;;;4976451;28;20987;-71
2022/11/20 06:05:15;;;;;;;0.60;0.60;;;5.90;91.00;;;;;;4977096;28;20453;-72
2022/11/20 06:07:41;;;;;;;0.60;0.60;;;6.10;91.10;;;;;;4976685;28;20856;-72
2022/11/20 06:10:09;;;;;;;0.70;0.70;;;6.30;90.10;;;;;;4976774;28;20457;-70
2022/11/20 06:12:36;;;;;;;0.60;0.60;;;6.40;89.90;;;;;;4976813;28;20470;-71
2022/11/20 06:15:02;;;;;;;0.60;0.60;;;6.40;89.20;;;;;;4976569;28;20447;-72
2022/11/20 06:17:29;;;;;;;0.60;0.60;;;6.40;89.60;;;;;;4976558;28;20949;-71
2022/11/20 06:19:57;;;;;;;0.70;0.70;;;6.40;89.80;;;;;;4976177;28;20454;-71
2022/11/20 06:22:24;;;;;;;0.60;0.60;;;6.40;88.70;;;;;;4976304;28;20477;-72
2022/11/20 06:24:51;;;;;;;0.60;0.60;;;6.50;88.90;;;;;;4976358;28;20454;-71
2022/11/20 06:27:17;;;;;;;0.60;0.60;;;6.50;89.00;;;;;;4976417;28;20638;-71
2022/11/20 06:29:44;;;;;;;0.67;0.67;;;6.30;88.70;;;;;;4976299;28;20855;-70
2022/11/20 06:32:11;;;;;;;0.60;0.60;;;6.30;89.30;;;;;;4975887;28;21005;-72
2022/11/20 06:34:38;;;;;;;0.60;0.60;;;6.30;89.20;;;;;;4976221;28;20454;-72
2022/11/20 06:37:06;;;;;;;0.70;0.70;;;6.40;89.40;;;;;;4976147;28;20457;-72
2022/11/20 06:39:33;;;;;;;0.60;0.60;;;6.50;89.20;;;;;;4976101;28;20446;-73
2022/11/20 06:42:00;;;;;;;0.70;0.60;;;6.50;89.00;;;;;;4976080;28;20467;-72
2022/11/20 06:44:26;;;;;;;0.70;0.70;;;6.60;88.90;;;;;;4976011;28;20820;-69
2022/11/20 06:46:53;;;;;;;0.60;0.60;;;6.70;91.20;;;;;;4975655;28;21013;-71
2022/11/20 06:49:20;;;;;;;0.50;0.50;;;6.80;90.00;;;;;;4975740;28;20490;-71
2022/11/20 06:51:46;;;;;;;0.60;0.60;;;6.80;88.00;;;;;;4975698;28;20473;-71
2022/11/20 06:54:14;;;;;;;0.70;0.70;;;6.50;87.70;;;;;;4975436;28;20942;-71
2022/11/20 06:56:41;;;;;;;0.60;0.60;;;6.40;87.90;;;;;;4975725;28;20457;-71
2022/11/20 06:59:08;;;;;;;0.60;0.60;;;6.40;88.90;;;;;;4975701;28;20468;-71
2022/11/20 07:01:35;;;;;;;1.13;0.60;;;6.40;88.90;;;;;;4975284;28;20501;-71
2022/11/20 07:04:02;;;;;;;0.60;0.60;;;6.40;89.00;;;;;;4975596;28;20521;-71
2022/11/20 07:06:29;;;;;;;0.60;0.60;;;6.40;88.80;;;;;;4975180;28;20941;-71
2022/11/20 07:08:56;;;;;;;0.73;0.70;;;6.40;89.10;;;;;;4975396;28;20489;-71
2022/11/20 07:11:24;;;;;;;0.60;0.60;;;6.40;89.10;;;;;;4974429;28;20477;-73
2022/11/20 07:13:51;;;;;;;0.67;0.67;;;6.40;88.90;;;;;;4975389;28;20449;-73
2022/11/20 07:16:18;;;;;;;0.60;0.60;;;6.40;89.00;;;;;;4975313;28;20465;-72
2022/11/20 07:18:45;;;;;;;0.60;0.60;;;6.40;89.10;;;;;;4975287;28;20442;-73
2022/11/20 07:21:12;;;;;;;0.60;0.60;;;6.50;88.80;;;;;;4975165;28;20476;-73
2022/11/20 07:23:38;;;;;;;0.60;0.60;;;6.50;89.10;;;;;;4975180;28;20450;-72
2022/11/20 07:26:06;;;;;;;0.60;0.60;;;6.60;88.40;;;;;;4975170;28;20454;-73
2022/11/20 07:28:34;;;;;;;0.60;0.60;;;6.40;88.90;;;;;;4975051;28;20487;-73
2022/11/20 07:31:01;;;;;;;0.57;0.57;;;6.30;89.10;;;;;;4975025;28;20477;-73
2022/11/20 07:33:28;;;;;;;0.60;0.60;;;6.40;89.70;;;;;;4974981;28;20912;-73
2022/11/20 07:35:55;;;;;;;0.50;0.50;;;6.50;89.70;;;;;;4975117;28;20453;-70
2022/11/20 07:38:21;;;;;;;0.60;0.60;;;6.40;88.90;;;;;;4975200;28;20449;-70
2022/11/20 07:40:48;;;;;;;0.60;0.60;;;6.50;89.30;;;;;;4975073;28;20474;-72
2022/11/20 07:43:15;;;;;;;0.60;0.60;;;6.60;89.00;;;;;;4975228;28;20454;-73
2022/11/20 07:45:43;;;;;;;0.60;0.60;;;6.60;88.70;;;;;;4975055;28;20454;-70
2022/11/20 07:48:10;;;;;;;0.57;0.57;;;6.60;88.80;;;;;;4975097;28;20505;-73
2022/11/20 07:50:36;;;;;;;0.60;0.60;;;6.70;88.30;;;;;;4974965;28;20461;-73
2022/11/20 07:53:04;;;;;;;0.70;0.60;;;6.90;88.40;;;;;;4974716;28;20937;-74
2022/11/20 07:55:31;;;;;;;0.50;0.50;;;7.90;86.40;;;;;;4974811;28;20852;-73
2022/11/20 07:57:58;;;;;;;0.60;0.60;;;8.10;83.40;;;;;;4974824;28;20450;-74
2022/11/20 08:00:26;;;;;;;0.60;0.60;;;8.10;83.00;;;;;;4974721;28;20450;-73
2022/11/20 08:02:54;;;;;;;0.60;0.60;;;7.90;83.90;;;;;;4974367;28;20462;-73
2022/11/20 08:05:20;;;;;;;0.60;0.60;;;7.70;84.10;;;;;;4974661;28;20454;-74
2022/11/20 08:07:47;;;;;;;0.67;0.60;;;7.40;85.00;;;;;;4974387;28;20447;-74
2022/11/20 08:10:16;;;;;;;0.57;0.57;;;7.20;85.80;;;;;;4974648;28;20855;-74
2022/11/20 08:15:32;;;;;;;0.60;0.60;;;7.10;87.20;;;;;;4974391;28;20410;-74
2022/11/20 08:18:05;;;;;;;0.70;0.70;;;7.10;87.50;;;;;;4974329;28;20877;-75
2022/11/20 08:20:32;;;;;;;0.60;0.60;;;7.10;88.00;;;;;;4974443;28;20475;-75
2022/11/20 08:23:00;;;;;;;0.50;0.50;;;7.10;88.00;;;;;;4978204;28;20457;-75
2022/11/20 08:25:27;;;;;;;0.60;0.60;;;7.10;87.60;;;;;;4978199;28;20956;-75
2022/11/20 08:27:54;;;;;;;0.73;0.70;;;7.10;88.00;;;;;;4978481;28;20450;-75
2022/11/20 08:30:21;;;;;;;0.60;0.60;;;7.00;88.30;;;;;;4978050;28;20985;-74
2022/11/20 08:32:47;;;;;;;0.60;0.60;;;6.90;88.50;;;;;;4978350;28;20830;-75
2022/11/20 08:35:15;;;;;;;0.53;0.53;;;6.80;88.90;;;;;;4978448;28;20449;-75
2022/11/20 08:37:42;;;;;;;0.57;0.57;;;6.80;89.50;;;;;;4978288;28;20446;-75
2022/11/20 08:40:11;;;;;;;0.63;0.63;;;6.80;89.80;;;;;;4977966;28;20997;-75
2022/11/20 08:42:38;;;;;;;0.60;0.60;;;7.00;89.70;;;;;;4978011;28;20466;-75
2022/11/20 08:45:05;;;;;;;0.50;0.50;;;7.00;89.30;;;;;;4978281;28;20464;-75
2022/11/20 08:47:32;;;;;;;0.50;0.50;;;6.90;89.30;;;;;;4978161;28;20446;-75
2022/11/20 08:49:59;;;;;;;0.60;0.60;;;7.00;89.70;;;;;;4977818;28;20989;-76
2022/11/20 08:52:27;;;;;;;0.50;0.50;;;7.00;89.40;;;;;;4978081;28;20497;-74
2022/11/20 08:54:54;;;;;;;0.60;0.60;;;7.10;89.00;;;;;;4978029;28;20452;-75
2022/11/20 08:57:21;;;;;;;0.50;0.50;;;7.10;88.80;;;;;;4978085;28;20942;-74
2022/11/20 08:59:47;;;;;;;0.60;0.60;;;7.30;89.00;;;;;;4977896;28;20450;-75
2022/11/20 09:02:15;;;;;;;0.50;0.50;;;7.40;88.80;;;;;;4977643;28;20486;-75
2022/11/20 09:04:41;;;;;;;0.57;0.57;;;7.50;88.30;;;;;;4977980;28;20450;-75
2022/11/20 09:07:08;;;;;;;0.50;0.50;;;7.50;87.90;;;;;;4977854;28;20450;-74
2022/11/20 09:09:36;;;;;;;0.60;0.60;;;7.50;88.30;;;;;;4977826;28;20478;-75
2022/11/20 09:12:03;;;;;;;0.50;0.50;;;7.50;88.30;;;;;;4977781;28;20462;-74
2022/11/20 09:14:30;;;;;;;0.50;0.50;;;7.60;87.40;;;;;;4977621;28;20454;-75
2022/11/20 09:16:56;;;;;;;0.50;0.50;;;7.50;87.60;;;;;;4977612;28;20453;-74
2022/11/20 09:19:24;;;;;;;0.50;0.50;;;7.40;88.80;;;;;;4977565;28;20446;-74
2022/11/20 09:21:51;;;;;;;0.50;0.50;;;7.30;88.50;;;;;;4977097;28;20899;-75
2022/11/20 09:24:18;;;;;;;0.50;0.50;;;7.40;89.00;;;;;;4977509;28;20501;-75
2022/11/20 09:26:46;;;;;;;0.50;0.50;;;7.40;88.70;;;;;;4977560;28;20458;-75
2022/11/20 09:29:12;;;;;;;0.50;0.50;;;7.30;88.40;;;;;;4977317;28;20486;-75
2022/11/20 09:31:39;;;;;;;0.50;0.50;;;7.30;89.20;;;;;;4977289;28;20529;-74
2022/11/20 09:34:06;;;;;;;0.50;0.50;;;7.40;89.60;;;;;;4976304;28;20938;-74
2022/11/20 09:36:32;;;;;;;0.50;0.50;;;7.50;88.60;;;;;;4977341;28;20454;-74
2022/11/20 09:38:59;;;;;;;0.50;0.50;;;7.60;88.00;;;;;;4977215;28;20501;-74
2022/11/20 09:41:42;;;;;;;0.57;0.57;;;7.60;88.10;;;;;;4977147;28;20470;-74
2022/11/20 09:44:21;;;;;;;0.50;0.50;;;7.60;87.10;;;;;;4976903;28;20450;-74
2022/11/20 09:46:56;;;;;;;0.50;0.50;;;7.40;87.50;;;;;;4977225;28;20461;-74
2022/11/20 09:49:30;;;;;;;0.50;0.43;;;7.40;88.20;;;;;;4976776;28;20847;-73
2022/11/20 09:51:59;;;;;;;0.50;0.50;;;7.40;88.20;;;;;;4977091;28;20484;-74
2022/11/20 09:54:31;;;;;;;0.50;0.50;;;7.30;88.40;;;;;;4977115;28;20458;-74
2022/11/20 09:57:01;;;;;;;0.50;0.50;;;7.30;88.40;;;;;;4976996;28;20952;-74
2022/11/20 09:59:36;;;;;;;0.50;0.50;;;7.40;88.40;;;;;;4976835;28;20478;-74
2022/11/20 10:02:13;;;;;;;0.50;0.50;;;7.40;88.30;;;;;;4976470;28;20485;-74
2022/11/20 10:04:45;;;;;;;0.50;0.50;;;7.40;87.70;;;;;;4976758;28;20445;-74
2022/11/20 10:07:16;;;;;;;0.50;0.50;;;7.30;87.80;;;;;;4976810;28;20430;-74
2022/11/20 10:09:52;;;;;;;0.50;0.40;;;7.30;88.40;;;;;;4976856;28;20470;-74
2022/11/20 10:12:27;;;;;;;0.50;0.50;;;7.40;87.80;;;;;;4976611;28;20477;-74
2022/11/20 10:15:08;;;;;;;0.50;0.50;;;7.50;88.00;;;;;;4978313;28;20504;-74
2022/11/20 10:17:59;;;;;;;0.50;0.50;;;7.50;87.50;;;;;;4976573;28;20430;-74
2022/11/20 10:20:36;;;;;;;0.50;0.50;;;7.60;88.40;;;;;;4976084;28;20933;-74
2022/11/20 10:23:24;;;;;;;0.60;0.60;;;7.70;88.10;;;;;;4977260;28;20445;-75
2022/11/20 10:26:00;;;;;;;0.50;0.50;;;7.70;87.80;;;;;;4976357;28;20438;-74
2022/11/20 10:28:40;;;;;;;0.50;0.50;;;7.60;87.70;;;;;;4976389;28;20434;-74
2022/11/20 10:31:15;;;;;;;0.50;0.50;;;7.60;88.80;;;;;;4976297;28;20470;-75
2022/11/20 10:33:45;;;;;;;0.60;0.60;;;7.60;89.00;;;;;;4975908;28;20912;-74
2022/11/20 10:36:17;;;;;;;0.50;0.50;;;7.60;89.20;;;;;;4976199;28;20438;-75
2022/11/20 10:38:49;;;;;;;0.50;0.50;;;7.60;89.80;;;;;;4976185;28;20438;-74
2022/11/20 10:41:26;;;;;;;0.50;0.50;;;7.60;89.50;;;;;;4976018;28;20474;-74
2022/11/20 10:44:00;;;;;;;0.50;0.50;;;7.70;90.30;;;;;;4976179;28;20458;-80
2022/11/20 10:46:39;;;;;;;0.50;0.50;;;7.80;90.70;;;;;;4975562;28;20438;-74
2022/11/20 10:49:13;;;;;;;0.50;0.50;;;7.90;90.10;;;;;;4977170;28;20466;-75
2022/11/20 10:51:52;;;;;;;0.50;0.50;;;7.90;89.70;;;;;;4976964;28;20474;-74
2022/11/20 10:54:27;;;;;;;0.50;0.50;;;8.00;89.70;;;;;;4976412;28;20434;-74
2022/11/20 10:56:56;;;;;;;0.60;0.60;;;7.90;89.30;;;;;;4976391;28;20445;-74
2022/11/20 10:59:53;;;;;;;1.90;0.70;;;7.90;89.60;;;;;;4975482;28;20945;-74
2022/11/20 11:02:23;;;;;;;0.50;0.50;;;7.80;89.50;;;;;;4972036;28;20489;-74
2022/11/20 11:04:51;;;;;;;0.50;0.50;;;7.80;90.40;;;;;;4975988;28;20465;-75
2022/11/20 11:07:22;;;;;;;0.50;0.50;;;7.90;90.10;;;;;;4976452;28;20465;-74
2022/11/20 11:09:51;;;;;;;0.50;0.50;;;7.70;89.50;;;;;;4976308;28;20493;-74
2022/11/20 11:12:18;;;;;;;0.50;0.50;;;7.80;90.70;;;;;;4976165;28;20982;-74
2022/11/20 11:14:47;;;;;;;0.60;0.60;;;7.90;90.60;;;;;;4976287;28;20454;-74
2022/11/20 11:17:32;;;;;;;0.60;0.60;;;8.00;90.10;;;;;;4976489;28;20454;-74
2022/11/20 11:20:01;;;;;;;0.50;0.50;;;8.00;89.50;;;;;;4976109;28;20443;-75
2022/11/20 11:22:30;;;;;;;1.47;0.70;;;8.10;90.10;;;;;;4975999;28;20525;-74
2022/11/20 11:24:56;;;;;;;0.50;0.50;;;8.20;88.70;;;;;;4976218;28;20457;-74
2022/11/20 11:27:23;;;;;;;0.60;0.60;;;8.10;88.80;;;;;;4976140;28;20798;-74
2022/11/20 11:29:50;;;;;;;0.50;0.50;;;8.00;89.30;;;;;;4975792;28;20482;-73
2022/11/20 11:32:20;;;;;;;0.50;0.50;;;7.80;89.30;;;;;;4975882;28;20481;-74
2022/11/20 11:35:00;;;;;;;0.50;0.50;;;8.00;89.50;;;;;;4977073;28;20533;-74
2022/11/20 11:37:33;;;;;;;0.50;0.50;;;7.90;88.40;;;;;;4976033;28;20802;-74
2022/11/20 11:40:00;;;;;;;0.60;0.60;;;8.10;88.70;;;;;;4975761;28;20435;-74
2022/11/20 11:42:29;;;;;;;0.60;0.60;;;8.30;88.00;;;;;;4976116;28;20482;-74
2022/11/20 11:45:07;;;;;;;0.60;0.60;;;8.50;86.90;;;;;;4975849;28;20450;-74
2022/11/20 11:47:36;;;;;;;0.70;0.70;;;8.70;86.40;;;;;;4976157;28;20422;-74
2022/11/20 11:50:18;;;;;;;0.60;0.60;;;8.80;84.90;;;;;;4975722;28;21009;-74
2022/11/20 11:52:51;;;;;;;0.50;0.50;;;9.00;84.50;;;;;;4976192;28;20478;-74
2022/11/20 11:55:30;;;;;;;0.60;0.60;;;9.50;85.20;;;;;;4976897;28;20439;-74
2022/11/20 11:58:07;;;;;;;0.50;0.50;;;10.00;82.30;;;;;;4976040;28;20438;-74
2022/11/20 12:00:37;;;;;;;0.60;0.60;;;10.90;79.60;;;;;;4976025;28;20439;-75
2022/11/20 12:03:18;;;;;;;0.60;0.60;;;11.40;77.30;;;;;;4983750;28;20477;-74
2022/11/20 12:05:50;;;;;;;0.60;0.60;;;12.70;74.90;;;;;;4986467;28;20437;-73
2022/11/20 12:08:24;;;;;;;0.60;0.60;;;14.10;68.40;;;;;;4986410;28;20461;-73
2022/11/20 12:10:57;;;;;;;0.60;0.60;;;14.50;64.20;;;;;;4986657;28;20525;-74
2022/11/20 12:13:36;;;;;;;0.57;0.50;;;15.40;62.70;;;;;;4987455;28;20474;-75
2022/11/20 12:16:07;;;;;;;0.57;0.57;;;17.50;58.00;;;;;;4987985;28;20477;-75
2022/11/20 12:18:34;;;;;;;0.50;0.50;;;20.30;52.30;;;;;;4986761;28;20453;-76
2022/11/20 12:21:12;;;;;;;0.60;0.60;;;22.30;47.40;;;;;;4977332;28;20481;-75
2022/11/20 12:24:04;;;;;;;0.60;0.60;;;23.50;44.90;;;;;;4974354;28;20442;-73
2022/11/20 12:26:46;;;;;;;0.60;0.60;;;22.50;44.10;;;;;;4975220;28;20777;-73
2022/11/20 12:29:20;;;;;;;0.50;0.50;;;19.80;47.70;;;;;;4974725;28;20840;-73
2022/11/20 12:32:03;;;;;;;0.50;0.50;;;17.60;52.20;;;;;;4974420;28;20473;-73
2022/11/20 12:34:42;;;;;;;0.60;0.50;;;15.90;56.50;;;;;;4974518;28;20459;-73
2022/11/20 12:37:18;;;;;;;0.50;0.50;;;14.30;58.50;;;;;;4974453;28;20804;-73
2022/11/20 12:39:49;;;;;;;0.57;0.57;;;13.20;61.80;;;;;;4974429;28;20430;-73
2022/11/20 12:45:29;;;;;;;0.50;0.50;;;11.40;68.30;;;;;;4974143;28;20406;-73
2022/11/20 12:48:23;;;;;;;0.50;0.50;;;11.00;70.20;;;;;;4974400;28;20442;-74
2022/11/20 12:51:05;;;;;;;0.60;0.60;;;11.60;69.50;;;;;;4973874;28;20489;-73
2022/11/20 12:53:42;;;;;;;0.60;0.60;;;12.60;65.70;;;;;;4974159;28;20439;-73
2022/11/20 12:56:24;;;;;;;0.60;0.60;;;13.10;62.90;;;;;;4974496;28;20430;-73
2022/11/20 12:59:03;;;;;;;0.60;0.57;;;13.50;62.90;;;;;;4974601;28;20457;-73
2022/11/20 13:01:42;;;;;;;0.73;0.50;;;13.70;62.20;;;;;;4973931;28;20485;-74
2022/11/20 13:04:24;;;;;;;0.50;0.50;;;15.20;60.80;;;;;;4974206;28;20439;-74
2022/11/20 13:06:52;;;;;;;0.60;0.57;;;17.80;54.10;;;;;;4974391;28;20438;-73
2022/11/20 13:09:23;;;;;;;0.60;0.60;;;18.40;49.30;;;;;;4976034;28;20942;-74
2022/11/20 13:11:56;;;;;;;0.60;0.60;;;19.50;48.50;;;;;;4977653;28;20480;-74
2022/11/20 13:14:51;;;;;;;0.60;0.60;;;17.90;49.20;;;;;;4977386;28;20918;-73
2022/11/20 13:17:24;;;;;;;0.50;0.50;;;17.20;51.70;;;;;;4972376;28;20465;-73
2022/11/20 13:19:53;;;;;;;0.60;0.60;;;18.30;48.70;;;;;;4978177;28;20430;-72
2022/11/20 13:22:26;;;;;;;0.60;0.60;;;17.70;49.50;;;;;;4977755;28;20473;-73
2022/11/20 13:24:55;;;;;;;0.50;0.50;;;17.20;50.60;;;;;;4977498;28;20430;-73
2022/11/20 13:27:23;;;;;;;0.50;0.50;;;18.70;49.10;;;;;;4977137;28;20504;-74
2022/11/20 13:30:02;;;;;;;0.50;0.50;;;18.80;49.20;;;;;;4977114;28;21051;-74
2022/11/20 13:32:31;;;;;;;0.60;0.60;;;17.90;49.70;;;;;;4977290;28;20473;-74
2022/11/20 13:35:01;;;;;;;0.50;0.50;;;18.80;49.40;;;;;;4976957;28;20548;-74
2022/11/20 13:37:31;;;;;;;0.50;0.50;;;19.40;47.20;;;;;;4977250;28;20856;-73
2022/11/20 13:40:21;;;;;;;0.57;0.57;;;20.40;45.80;;;;;;4977959;28;20756;-73
2022/11/20 13:42:57;;;;;;;0.50;0.50;;;21.70;44.00;;;;;;4977068;28;20477;-74
2022/11/20 13:45:26;;;;;;;0.50;0.50;;;22.40;41.30;;;;;;4977087;28;20457;-74
2022/11/20 13:47:54;;;;;;;0.50;0.50;;;20.00;44.00;;;;;;4977750;28;20454;-73
2022/11/20 13:50:38;;;;;;;0.50;0.50;;;18.70;46.90;;;;;;4980602;28;20910;-73
2022/11/20 13:53:13;;;;;;;0.60;0.60;;;17.00;49.90;;;;;;4980277;28;20435;-73
2022/11/20 13:55:49;;;;;;;0.60;0.60;;;15.70;53.50;;;;;;4980433;28;20435;-74
2022/11/20 13:58:32;;;;;;;0.60;0.60;;;15.10;55.80;;;;;;4979921;28;20438;-74
2022/11/20 14:01:08;;;;;;;0.50;0.50;;;14.70;56.00;;;;;;4979448;28;20482;-75
2022/11/20 14:03:36;;;;;;;0.60;0.60;;;14.60;56.60;;;;;;4979745;28;20453;-73
2022/11/20 14:06:04;;;;;;;0.60;0.60;;;14.50;56.60;;;;;;4980592;28;20454;-73
2022/11/20 14:08:37;;;;;;;0.53;0.53;;;13.70;58.30;;;;;;4980190;28;20454;-73
2022/11/20 14:11:16;;;;;;;0.50;0.50;;;13.80;58.10;;;;;;4981090;28;20498;-73
2022/11/20 14:13:54;;;;;;;0.60;0.60;;;12.90;59.70;;;;;;4980600;28;20447;-74
2022/11/20 14:16:21;;;;;;;0.70;0.70;;;12.40;61.10;;;;;;4980783;28;20434;-73
2022/11/20 14:18:48;;;;;;;0.60;0.50;;;12.00;63.30;;;;;;4981947;28;20472;-73
2022/11/20 14:21:24;;;;;;;0.60;0.60;;;11.40;63.30;;;;;;4979962;28;20470;-72
2022/11/20 14:23:54;;;;;;;0.57;0.57;;;10.60;65.90;;;;;;4982629;28;20844;-73
2022/11/20 14:26:22;;;;;;;0.50;0.50;;;10.30;68.30;;;;;;4981839;28;20455;-73
2022/11/20 14:28:51;;;;;;;0.60;0.60;;;9.90;69.40;;;;;;4979011;28;20454;-72
2022/11/20 14:31:24;;;;;;;0.80;0.80;;;9.70;70.70;;;;;;4980638;28;20494;-72
2022/11/20 14:33:52;;;;;;;0.50;0.50;;;9.60;72.60;;;;;;4984277;28;20792;-74
2022/11/20 14:36:22;;;;;;;0.50;0.50;;;9.60;72.80;;;;;;4982788;28;20455;-73
2022/11/20 14:38:49;;;;;;;0.50;0.50;;;9.60;72.20;;;;;;4979770;28;20961;-73
2022/11/20 14:41:19;;;;;;;0.60;0.60;;;9.60;72.60;;;;;;4979813;28;20492;-73
2022/11/20 14:43:52;;;;;;;0.60;0.60;;;9.60;72.80;;;;;;4981601;28;20461;-74
2022/11/20 14:46:19;;;;;;;0.70;0.50;;;9.40;74.70;;;;;;4981349;28;20442;-73
2022/11/20 14:48:48;;;;;;;0.70;0.70;;;9.50;75.10;;;;;;4981500;28;20981;-73
2022/11/20 14:51:34;;;;;;;0.70;0.70;;;9.50;74.60;;;;;;4980785;28;20602;-73
2022/11/20 14:54:11;;;;;;;0.60;0.60;;;9.50;75.20;;;;;;4981336;28;20914;-73
2022/11/20 14:56:38;;;;;;;0.60;0.60;;;9.50;75.70;;;;;;4979564;28;20793;-73
2022/11/20 14:59:08;;;;;;;0.57;0.57;;;9.40;75.70;;;;;;4982021;28;20602;-73
2022/11/20 15:01:36;;;;;;;0.60;0.60;;;9.30;76.40;;;;;;4981942;28;20473;-73
2022/11/20 15:04:07;;;;;;;0.60;0.60;;;9.00;76.70;;;;;;4983625;28;20449;-73
2022/11/20 15:06:34;;;;;;;0.60;0.60;;;8.70;77.60;;;;;;4983092;28;20439;-74
2022/11/20 15:09:02;;;;;;;0.60;0.60;;;8.60;78.60;;;;;;4982550;28;20453;-74
2022/11/20 15:11:31;;;;;;;0.60;0.60;;;8.50;79.00;;;;;;4981377;28;20497;-75
2022/11/20 15:14:02;;;;;;;0.50;0.50;;;8.50;78.10;;;;;;4981405;28;20454;-73
2022/11/20 15:16:31;;;;;;;0.50;0.50;;;8.30;78.30;;;;;;4979862;28;20442;-73
2022/11/20 15:18:58;;;;;;;0.60;0.60;;;8.30;78.60;;;;;;4979723;28;20446;-75
2022/11/20 15:21:25;;;;;;;0.57;0.57;;;8.30;78.70;;;;;;4980521;28;20474;-74
2022/11/20 15:23:51;;;;;;;0.50;0.50;;;8.30;79.00;;;;;;4979472;28;20966;-73
2022/11/20 15:26:24;;;;;;;0.60;0.60;;;8.20;79.10;;;;;;4977620;28;20537;-74
2022/11/20 15:28:51;;;;;;;0.53;0.53;;;8.20;79.50;;;;;;4977713;28;20933;-73
2022/11/20 15:31:20;;;;;;;0.60;0.60;;;8.20;79.40;;;;;;4976225;28;20486;-73
2022/11/20 15:33:49;;;;;;;0.60;0.60;;;8.00;79.70;;;;;;4978545;28;20450;-73
2022/11/20 15:36:15;;;;;;;0.60;0.50;;;7.90;80.20;;;;;;4978834;28;20454;-73
2022/11/20 15:38:42;;;;;;;0.60;0.60;;;8.00;80.60;;;;;;4979488;28;20450;-73
2022/11/20 15:41:10;;;;;;;0.50;0.50;;;7.80;81.30;;;;;;4980173;28;20478;-73
2022/11/20 15:43:36;;;;;;;0.50;0.50;;;7.80;81.50;;;;;;4980260;28;20465;-73
2022/11/20 15:46:05;;;;;;;0.50;0.50;;;7.90;81.60;;;;;;4980932;28;20458;-72
2022/11/20 15:48:36;;;;;;;0.60;0.60;;;7.90;81.50;;;;;;4980507;28;20893;-73
2022/11/20 15:51:12;;;;;;;0.50;0.50;;;8.10;81.40;;;;;;4980622;28;20844;-74
2022/11/20 15:53:39;;;;;;;0.60;0.60;;;7.90;81.40;;;;;;4980190;28;20564;-73
2022/11/20 15:56:07;;;;;;;0.60;0.60;;;7.80;82.00;;;;;;4977924;28;20456;-73
2022/11/20 15:58:34;;;;;;;0.60;0.60;;;7.80;82.30;;;;;;4978866;28;20458;-73
2022/11/20 16:01:01;;;;;;;0.60;0.60;;;7.80;82.30;;;;;;4977583;28;20497;-73
2022/11/20 16:03:27;;;;;;;0.60;0.60;;;7.90;82.30;;;;;;4977641;28;20450;-73
2022/11/20 16:05:54;;;;;;;0.70;0.70;;;7.90;82.20;;;;;;4977937;28;20459;-73
2022/11/20 16:08:22;;;;;;;0.50;0.50;;;7.90;82.60;;;;;;4977718;28;20456;-73
2022/11/20 16:10:49;;;;;;;0.60;0.60;;;8.00;82.40;;;;;;4978796;28;20494;-74
2022/11/20 16:16:05;;;;;;;0.70;0.70;;;8.10;81.70;;;;;;4979352;28;20442;-73
2022/11/20 16:18:33;;;;;;;0.60;0.60;;;8.10;82.00;;;;;;4980159;28;20444;-73
2022/11/20 16:21:00;;;;;;;0.50;0.50;;;8.20;81.70;;;;;;4977686;28;20467;-74
2022/11/20 16:23:28;;;;;;;0.70;0.70;;;8.20;81.70;;;;;;4978020;28;20454;-73
2022/11/20 16:25:55;;;;;;;1.23;0.70;;;8.10;81.80;;;;;;4978410;28;20824;-73
2022/11/20 16:28:22;;;;;;;0.60;0.60;;;7.90;82.30;;;;;;4977440;28;20490;-74
2022/11/20 16:30:48;;;;;;;0.60;0.60;;;7.90;82.50;;;;;;4978452;28;21001;-72
2022/11/20 16:33:17;;;;;;;0.60;0.60;;;7.80;83.10;;;;;;4977232;28;20450;-73
2022/11/20 16:35:44;;;;;;;0.67;0.67;;;7.80;83.10;;;;;;4976759;28;20446;-73
2022/11/20 16:38:11;;;;;;;0.60;0.60;;;7.70;83.40;;;;;;4975930;28;20454;-74
2022/11/20 16:40:39;;;;;;;0.60;0.60;;;7.80;83.80;;;;;;4975719;28;20537;-74
2022/11/20 16:43:10;;;;;;;0.50;0.50;;;8.00;83.00;;;;;;4977792;28;20465;-73
2022/11/20 16:45:42;;;;;;;0.60;0.60;;;7.90;82.90;;;;;;4979213;28;20914;-72
2022/11/20 16:48:13;;;;;;;0.60;0.60;;;7.90;83.30;;;;;;4979103;28;20442;-73
2022/11/20 16:50:47;;;;;;;0.77;0.77;;;7.80;82.80;;;;;;4978010;28;20502;-73
2022/11/20 16:53:14;;;;;;;0.60;0.60;;;7.90;83.00;;;;;;4978941;28;20517;-73
2022/11/20 16:55:42;;;;;;;0.70;0.70;;;7.80;83.10;;;;;;4977986;28;20450;-72
2022/11/20 16:58:09;;;;;;;0.60;0.60;;;7.80;83.00;;;;;;4977946;28;20453;-73
2022/11/20 17:00:36;;;;;;;0.80;0.80;;;7.60;83.30;;;;;;4977912;28;20818;-73
2022/11/20 17:03:03;;;;;;;0.60;0.60;;;7.60;83.90;;;;;;4977884;28;20450;-73
2022/11/20 17:05:30;;;;;;;0.53;0.53;;;7.60;83.80;;;;;;4977889;28;20450;-73
2022/11/20 17:07:57;;;;;;;0.60;0.60;;;7.60;84.30;;;;;;4977802;28;20469;-74
2022/11/20 17:10:24;;;;;;;0.63;0.63;;;7.70;84.10;;;;;;4977705;28;20456;-74
2022/11/20 17:12:52;;;;;;;0.60;0.60;;;7.70;84.20;;;;;;4977402;28;20969;-73
2022/11/20 17:15:18;;;;;;;0.60;0.60;;;7.60;84.00;;;;;;4977395;28;20938;-74
2022/11/20 17:17:45;;;;;;;0.60;0.60;;;7.60;83.90;;;;;;4977589;28;20457;-74
2022/11/20 17:20:12;;;;;;;0.50;0.50;;;7.50;83.30;;;;;;4977559;28;20473;-73